createdAt,value
2019-03-28T00:01:47.557Z,10.03
2019-03-28T00:06:51.773Z,9.90
2019-03-28T00:11:56.001Z,10.77
2019-03-28T00:17:00.304Z,11.23
2019-03-28T00:22:05.919Z,11.37
2019-03-28T00:27:10.451Z,11.33
2019-03-28T00:32:14.662Z,11.17
2019-03-28T00:37:18.876Z,11.00
2019-03-28T00:42:23.100Z,10.77
2019-03-28T00:47:27.341Z,12.97
2019-03-28T00:52:31.813Z,10.63
2019-03-28T00:57:36.030Z,11.57
2019-03-28T01:02:40.501Z,11.17
2019-03-28T01:07:44.809Z,10.67
2019-03-28T01:12:49.037Z,11.27
2019-03-28T01:17:53.252Z,11.50
2019-03-28T01:22:57.483Z,9.90
2019-03-28T01:28:01.707Z,10.03
2019-03-28T01:33:05.933Z,9.47
2019-03-28T01:38:10.141Z,9.87
2019-03-28T01:43:14.359Z,8.77
2019-03-28T01:48:18.598Z,9.40
2019-03-28T01:53:22.876Z,8.77
2019-03-28T01:58:27.124Z,8.23
2019-03-28T02:03:31.341Z,8.63
2019-03-28T02:08:35.554Z,8.83
2019-03-28T02:13:39.764Z,8.83
2019-03-28T02:18:43.985Z,7.30
2019-03-28T02:23:48.197Z,7.50
2019-03-28T02:28:52.449Z,7.17
2019-03-28T02:33:56.662Z,7.27
2019-03-28T02:39:00.872Z,7.17
2019-03-28T02:44:05.286Z,7.27
2019-03-28T02:49:09.510Z,6.90
2019-03-28T02:54:13.868Z,6.87
2019-03-28T02:59:18.122Z,7.20
2019-03-28T03:04:22.557Z,6.87
2019-03-28T03:09:26.926Z,7.23
2019-03-28T03:14:31.151Z,6.27
2019-03-28T03:19:35.383Z,6.70
2019-03-28T03:24:39.600Z,8.17
2019-03-28T03:29:43.821Z,6.73
2019-03-28T03:34:48.073Z,7.33
2019-03-28T03:39:52.354Z,7.27
2019-03-28T03:44:56.615Z,7.07
2019-03-28T03:50:00.840Z,6.43
2019-03-28T03:55:05.321Z,6.80
2019-03-28T04:00:10.140Z,6.27
2019-03-28T04:05:14.358Z,6.23
2019-03-28T04:10:18.582Z,6.60
2019-03-28T04:15:22.795Z,6.83
2019-03-28T04:20:27.022Z,6.40
2019-03-28T04:25:31.541Z,7.30
2019-03-28T04:30:36.211Z,5.50
2019-03-28T04:35:40.444Z,6.73
2019-03-28T04:40:44.688Z,5.67
2019-03-28T04:45:48.929Z,6.53
2019-03-28T04:50:53.178Z,5.73
2019-03-28T04:55:57.395Z,5.97
2019-03-28T05:01:01.711Z,6.53
2019-03-28T05:06:06.030Z,7.00
2019-03-28T05:11:10.257Z,6.30
2019-03-28T05:16:14.494Z,6.53
2019-03-28T05:21:18.798Z,5.47
2019-03-28T05:26:23.024Z,5.87
2019-03-28T05:31:27.232Z,6.03
2019-03-28T05:36:31.458Z,5.50
2019-03-28T05:41:35.787Z,6.27
2019-03-28T05:46:40.198Z,6.40
2019-03-28T05:51:44.409Z,5.37
2019-03-28T05:56:48.627Z,5.90
2019-03-28T06:01:52.859Z,5.50
2019-03-28T06:06:57.093Z,5.20
2019-03-28T06:12:01.317Z,5.50
2019-03-28T06:17:05.806Z,5.33
2019-03-28T06:22:10.297Z,5.50
2019-03-28T06:27:14.524Z,5.97
2019-03-28T06:32:18.790Z,5.53
2019-03-28T06:37:23.179Z,5.43
2019-03-28T06:42:27.522Z,5.50
2019-03-28T06:47:31.747Z,6.10
2019-03-28T06:52:36.271Z,5.60
2019-03-28T06:57:40.491Z,6.80
2019-03-28T07:02:44.751Z,5.87
2019-03-28T07:07:49.004Z,4.97
2019-03-28T07:12:53.526Z,5.50
2019-03-28T07:17:57.749Z,6.07
2019-03-28T07:23:03.299Z,6.23
2019-03-28T07:28:08.193Z,4.53
2019-03-28T07:33:12.996Z,5.33
2019-03-28T07:38:17.360Z,3.97
2019-03-28T07:43:21.635Z,4.47
2019-03-28T07:48:27.163Z,3.87
2019-03-28T07:53:31.452Z,4.23
2019-03-28T07:58:35.715Z,3.83
2019-03-28T08:03:40.136Z,4.00
2019-03-28T08:08:44.445Z,4.17
2019-03-28T08:13:48.731Z,5.73
2019-03-28T08:18:52.960Z,4.87
2019-03-28T08:23:57.225Z,3.73
2019-03-28T08:29:01.551Z,4.63
2019-03-28T08:34:05.942Z,4.60
2019-03-28T08:39:10.303Z,3.50
2019-03-28T08:44:14.616Z,3.47
2019-03-28T08:49:20.862Z,4.17
2019-03-28T08:54:25.004Z,5.07
2019-03-28T08:59:29.347Z,4.43
2019-03-28T09:04:33.642Z,4.90
2019-03-28T09:09:38.064Z,5.53
2019-03-28T09:14:53.543Z,4.63
2019-03-28T09:19:57.794Z,4.70
2019-03-28T09:25:04.655Z,4.63
2019-03-28T09:30:10.388Z,5.17
2019-03-28T09:35:18.911Z,4.93
2019-03-28T09:40:23.210Z,3.60
2019-03-28T09:45:27.559Z,4.17
2019-03-28T09:50:31.993Z,3.27
2019-03-28T09:55:36.441Z,3.97
2019-03-28T10:00:40.927Z,4.57
2019-03-28T10:05:45.147Z,4.00
2019-03-28T10:10:49.390Z,5.17
2019-03-28T10:15:56.100Z,3.73
2019-03-28T10:21:02.374Z,5.00
2019-03-28T10:26:06.639Z,3.87
2019-03-28T10:31:16.686Z,4.80
2019-03-28T10:36:17.011Z,3.83
2019-03-28T10:41:21.273Z,4.03
2019-03-28T10:46:25.606Z,3.50
2019-03-28T10:51:31.022Z,4.40
2019-03-28T10:56:35.271Z,4.40
2019-03-28T11:01:49.199Z,5.83
2019-03-28T11:06:45.587Z,4.47
2019-03-28T11:11:49.878Z,5.77
2019-03-28T11:16:54.122Z,4.70
2019-03-28T11:21:58.599Z,5.83
2019-03-28T11:27:03.996Z,5.17
2019-03-28T11:32:08.295Z,4.80
2019-03-28T11:37:25.418Z,3.90
2019-03-28T11:42:18.564Z,4.17
2019-03-28T11:47:23.895Z,5.07
2019-03-28T11:52:28.291Z,5.87
2019-03-28T11:57:32.512Z,4.83
2019-03-28T12:02:36.759Z,3.83
2019-03-28T12:07:40.975Z,3.50
2019-03-28T12:12:45.243Z,3.83
2019-03-28T12:17:49.476Z,3.37
2019-03-28T12:22:56.122Z,3.43
2019-03-28T12:28:00.482Z,3.63
2019-03-28T12:33:04.980Z,2.87
2019-03-28T12:38:09.199Z,3.80
2019-03-28T12:43:13.441Z,3.47
2019-03-28T12:48:17.958Z,2.20
2019-03-28T12:53:25.439Z,2.57
2019-03-28T12:58:29.744Z,3.50
2019-03-28T13:03:44.741Z,3.10
2019-03-28T13:08:40.017Z,3.10
2019-03-28T13:13:44.268Z,4.10
2019-03-28T13:18:48.742Z,4.00
2019-03-28T13:23:52.987Z,3.90
2019-03-28T13:28:57.526Z,4.93
2019-03-28T13:34:01.792Z,4.57
2019-03-28T13:39:11.915Z,4.80
2019-03-28T13:44:16.156Z,4.77
2019-03-28T13:49:20.398Z,4.40
2019-03-28T13:54:24.633Z,4.77
2019-03-28T13:59:28.859Z,4.27
2019-03-28T14:04:33.099Z,4.27
2019-03-28T14:09:37.424Z,4.13
2019-03-28T14:14:41.999Z,5.87
2019-03-28T14:19:46.292Z,8.03
2019-03-28T14:24:50.516Z,5.63
2019-03-28T14:29:54.754Z,4.00
2019-03-28T14:34:58.960Z,6.53
2019-03-28T14:40:03.179Z,5.20
2019-03-28T14:45:07.764Z,4.33
2019-03-28T14:50:12.687Z,5.93
2019-03-28T14:55:16.981Z,6.10
2019-03-28T15:00:42.774Z,4.73
2019-03-28T15:05:47.205Z,3.90
2019-03-28T15:10:51.649Z,4.10
2019-03-28T15:15:55.872Z,3.80
2019-03-28T15:27:48.061Z,3.70
2019-03-28T15:32:52.638Z,2.50
2019-03-28T15:37:56.942Z,3.00
2019-03-28T15:43:02.089Z,2.63
2019-03-28T15:48:06.339Z,2.40
2019-03-28T15:53:10.569Z,2.73
2019-03-28T15:58:22.991Z,2.17
2019-03-28T16:03:22.334Z,2.10
2019-03-28T16:08:33.580Z,3.47
2019-03-28T16:13:37.994Z,4.00
2019-03-28T16:18:42.220Z,3.20
2019-03-28T16:23:46.473Z,2.33
2019-03-28T16:28:50.713Z,2.30
2019-03-28T16:34:06.069Z,2.83
2019-03-28T16:39:02.622Z,2.27
2019-03-28T16:44:07.135Z,2.40
2019-03-28T16:49:11.389Z,2.00
2019-03-28T16:54:15.740Z,1.70
2019-03-28T16:59:20.026Z,2.40
2019-03-28T17:04:24.283Z,2.00
2019-03-28T17:09:28.884Z,1.97
2019-03-28T17:14:33.126Z,2.67
2019-03-28T17:19:42.435Z,1.70
2019-03-28T17:24:45.382Z,2.23
2019-03-28T17:29:50.315Z,2.53
2019-03-28T17:34:54.988Z,1.90
2019-03-28T17:39:59.820Z,1.90
2019-03-28T17:45:04.191Z,2.20
2019-03-28T17:50:08.800Z,2.10
2019-03-28T17:55:13.189Z,1.70
2019-03-28T18:00:17.775Z,1.53
2019-03-28T18:05:22.095Z,1.40
2019-03-28T18:10:26.326Z,1.60
2019-03-28T18:15:30.573Z,1.73
2019-03-28T18:20:34.835Z,2.23
2019-03-28T18:25:39.137Z,1.60
2019-03-28T18:30:43.530Z,1.60
2019-03-28T18:35:47.882Z,1.83
2019-03-28T18:40:52.430Z,2.17
2019-03-28T18:45:56.668Z,3.77
2019-03-28T18:51:00.910Z,1.90
2019-03-28T18:56:05.259Z,2.57
2019-03-28T19:01:09.484Z,3.57
2019-03-28T19:06:15.059Z,12.33
2019-03-28T19:11:19.520Z,21.20
2019-03-28T19:16:26.574Z,8.10
2019-03-28T19:21:30.799Z,5.60
2019-03-28T19:26:35.033Z,5.00
2019-03-28T19:31:39.274Z,3.67
2019-03-28T19:36:44.992Z,3.50
2019-03-28T19:41:49.362Z,4.13
2019-03-28T19:46:53.618Z,4.07
2019-03-28T19:51:57.891Z,4.93
2019-03-28T19:57:02.588Z,6.27
2019-03-28T20:02:08.568Z,5.27
2019-03-28T20:07:21.653Z,4.10
2019-03-28T20:12:22.575Z,5.27
2019-03-28T20:17:27.158Z,4.33
2019-03-28T20:22:32.716Z,5.70
2019-03-28T20:27:37.611Z,4.30
2019-03-28T20:32:42.466Z,5.97
2019-03-28T20:37:46.917Z,4.47
2019-03-28T20:42:51.951Z,4.73
2019-03-28T20:47:56.869Z,5.03
2019-03-28T20:53:01.885Z,4.93
2019-03-28T20:58:06.907Z,5.47
2019-03-28T21:03:15.712Z,4.27
2019-03-28T21:08:20.415Z,4.40
2019-03-28T21:13:25.240Z,4.77
2019-03-28T21:18:30.254Z,4.17
2019-03-28T21:23:34.581Z,4.57
2019-03-28T21:28:47.147Z,4.27
2019-03-28T21:33:45.494Z,5.50
2019-03-28T21:38:49.806Z,4.40
2019-03-28T21:43:54.036Z,4.47
2019-03-28T21:48:58.451Z,5.27
2019-03-28T21:54:05.014Z,6.20
2019-03-28T21:59:08.640Z,6.90
2019-03-28T22:04:12.864Z,8.63
2019-03-28T22:09:17.097Z,7.10
2019-03-28T22:14:21.318Z,8.73
2019-03-28T22:19:26.076Z,6.90
2019-03-28T22:24:30.897Z,6.07
2019-03-28T22:29:35.119Z,6.27
2019-03-28T22:34:39.346Z,5.07
2019-03-28T22:39:43.562Z,6.20
2019-03-28T22:44:48.048Z,5.90
2019-03-28T22:49:52.287Z,6.90
2019-03-28T22:54:56.775Z,6.13
2019-03-28T23:00:04.137Z,7.47
2019-03-28T23:05:07.970Z,6.57
2019-03-28T23:10:12.671Z,7.60
2019-03-28T23:15:17.045Z,7.00
2019-03-28T23:20:21.350Z,7.30
2019-03-28T23:25:25.569Z,7.17
2019-03-28T23:30:29.803Z,8.43
2019-03-28T23:35:34.033Z,9.80
2019-03-28T23:40:38.272Z,13.57
2019-03-28T23:45:42.524Z,10.10
2019-03-28T23:50:47.017Z,11.30
2019-03-28T23:55:51.410Z,10.77
